createdAt,value
2023-01-17T00:02:11.086Z,7.60
2023-01-17T00:05:31.711Z,7.42
2023-01-17T00:08:52.217Z,8.04
2023-01-17T00:11:54.194Z,8.08
2023-01-17T00:14:56.637Z,7.34
2023-01-17T00:17:58.713Z,8.18
2023-01-17T00:21:19.400Z,8.05
2023-01-17T00:24:39.789Z,7.75
2023-01-17T00:27:41.626Z,8.51
2023-01-17T00:30:43.428Z,7.70
2023-01-17T00:33:45.240Z,8.15
2023-01-17T00:36:47.066Z,7.41
2023-01-17T00:39:48.882Z,7.91
2023-01-17T00:42:50.713Z,7.41
2023-01-17T00:46:11.616Z,8.36
2023-01-17T00:49:31.983Z,8.52
2023-01-17T00:52:52.237Z,8.50
2023-01-17T00:56:12.611Z,8.36
2023-01-17T00:59:33.202Z,8.76
2023-01-17T01:02:54.328Z,8.63
2023-01-17T01:06:14.616Z,8.40
2023-01-17T01:09:35.169Z,8.42
2023-01-17T01:12:55.528Z,8.66
2023-01-17T01:16:19.418Z,7.96
2023-01-17T01:19:39.842Z,7.77
2023-01-17T01:23:00.489Z,7.93
2023-01-17T01:26:21.769Z,8.24
2023-01-17T01:29:42.362Z,8.46
2023-01-17T01:33:02.891Z,7.68
2023-01-17T01:36:06.683Z,8.05
2023-01-17T01:39:08.554Z,8.06
2023-01-17T01:42:16.442Z,8.17
2023-01-17T01:45:19.805Z,8.55
2023-01-17T01:48:30.885Z,8.22
2023-01-17T01:51:38.838Z,8.06
2023-01-17T01:54:42.066Z,7.55
2023-01-17T01:57:44.419Z,8.04
2023-01-17T02:00:46.354Z,7.23
2023-01-17T02:03:48.315Z,7.28
2023-01-17T02:06:51.906Z,8.17
2023-01-17T02:09:53.890Z,8.25
2023-01-17T02:12:55.757Z,8.43
2023-01-17T02:16:01.435Z,8.40
2023-01-17T02:19:20.827Z,8.26
2023-01-17T02:22:31.874Z,8.36
2023-01-17T02:25:52.352Z,8.20
2023-01-17T02:29:14.565Z,8.56
2023-01-17T02:32:25.599Z,7.42
2023-01-17T02:35:38.151Z,7.96
2023-01-17T02:38:49.304Z,7.63
2023-01-17T02:41:52.072Z,8.27
2023-01-17T02:44:53.967Z,8.06
2023-01-17T02:47:55.948Z,8.18
2023-01-17T02:51:08.159Z,8.19
2023-01-17T02:54:10.054Z,8.23
2023-01-17T02:57:12.088Z,8.24
2023-01-17T03:00:14.057Z,8.27
2023-01-17T03:03:21.782Z,8.73
2023-01-17T03:06:25.400Z,8.59
2023-01-17T03:09:27.268Z,8.55
2023-01-17T03:12:33.129Z,8.26
2023-01-17T03:15:35.006Z,8.38
2023-01-17T03:18:37.083Z,8.23
2023-01-17T03:21:39.008Z,8.86
2023-01-17T03:24:40.961Z,8.63
2023-01-17T03:27:42.917Z,8.79
2023-01-17T03:30:44.992Z,8.71
2023-01-17T03:33:47.137Z,7.92
2023-01-17T03:36:48.958Z,8.41
2023-01-17T03:39:50.863Z,8.61
2023-01-17T03:42:52.701Z,8.52
2023-01-17T03:45:59.095Z,7.88
2023-01-17T03:49:01.079Z,7.93
2023-01-17T03:52:03.106Z,8.43
2023-01-17T03:55:05.677Z,8.21
2023-01-17T03:58:07.529Z,8.18
2023-01-17T04:01:09.603Z,8.83
2023-01-17T04:04:11.652Z,8.78
2023-01-17T04:07:13.622Z,8.52
2023-01-17T04:10:15.721Z,8.33
2023-01-17T04:13:17.605Z,8.29
2023-01-17T04:16:19.609Z,7.96
2023-01-17T04:19:22.538Z,8.15
2023-01-17T04:22:24.507Z,8.28
2023-01-17T04:25:26.529Z,8.43
2023-01-17T04:28:28.394Z,8.28
2023-01-17T04:31:30.328Z,8.39
2023-01-17T04:34:32.276Z,8.92
2023-01-17T04:37:34.155Z,9.39
2023-01-17T04:40:36.013Z,8.54
2023-01-17T04:43:38.402Z,8.32
2023-01-17T04:46:40.256Z,8.00
2023-01-17T04:49:44.080Z,8.87
2023-01-17T04:52:46.095Z,8.75
2023-01-17T04:55:48.021Z,8.89
2023-01-17T04:58:49.916Z,8.94
2023-01-17T05:01:51.842Z,8.49
2023-01-17T05:04:53.736Z,8.68
2023-01-17T05:07:55.996Z,7.88
2023-01-17T05:10:58.039Z,7.62
2023-01-17T05:14:00.279Z,7.98
2023-01-17T05:17:03.179Z,8.05
2023-01-17T05:20:05.318Z,8.47
2023-01-17T05:23:07.218Z,7.91
2023-01-17T05:26:09.178Z,7.42
2023-01-17T05:29:11.314Z,8.34
2023-01-17T05:32:13.224Z,8.66
2023-01-17T05:35:15.804Z,7.53
2023-01-17T05:38:17.690Z,7.44
2023-01-17T05:41:19.682Z,7.59
2023-01-17T05:44:21.598Z,7.55
2023-01-17T05:47:23.665Z,8.14
2023-01-17T05:50:26.706Z,7.13
2023-01-17T05:53:28.645Z,7.20
2023-01-17T05:56:30.542Z,7.23
2023-01-17T05:59:37.415Z,7.33
2023-01-17T06:02:39.781Z,7.63
2023-01-17T06:05:41.894Z,7.55
2023-01-17T06:08:43.739Z,7.85
2023-01-17T06:11:45.822Z,7.41
2023-01-17T06:14:47.762Z,7.00
2023-01-17T06:17:49.578Z,6.84
2023-01-17T06:20:54.825Z,6.84
2023-01-17T06:23:56.793Z,7.09
2023-01-17T06:26:58.755Z,7.49
2023-01-17T06:30:00.657Z,8.79
2023-01-17T06:33:02.790Z,9.71
2023-01-17T06:36:04.997Z,9.65
2023-01-17T06:39:07.013Z,9.03
2023-01-17T06:42:09.145Z,8.30
2023-01-17T06:45:11.604Z,7.70
2023-01-17T06:48:13.750Z,7.33
2023-01-17T06:51:15.961Z,7.18
2023-01-17T06:54:18.904Z,7.26
2023-01-17T06:57:20.830Z,7.08
2023-01-17T07:00:22.774Z,7.04
2023-01-17T07:03:25.594Z,7.29
2023-01-17T07:06:28.989Z,7.43
2023-01-17T07:09:31.073Z,7.32
2023-01-17T07:12:32.990Z,7.28
2023-01-17T07:15:35.150Z,7.33
2023-01-17T07:18:37.155Z,7.46
2023-01-17T07:21:41.363Z,7.34
2023-01-17T07:24:43.290Z,7.79
2023-01-17T07:27:45.160Z,7.70
2023-01-17T07:30:47.107Z,7.52
2023-01-17T07:33:49.094Z,7.90
2023-01-17T07:36:51.041Z,7.83
2023-01-17T07:39:54.023Z,7.35
2023-01-17T07:43:02.249Z,7.71
2023-01-17T07:46:05.467Z,7.59
2023-01-17T07:49:07.540Z,7.14
2023-01-17T07:52:09.860Z,8.30
2023-01-17T07:55:11.942Z,7.10
2023-01-17T07:58:15.089Z,7.91
2023-01-17T08:01:17.087Z,7.36
2023-01-17T08:04:18.972Z,7.48
2023-01-17T08:07:20.914Z,8.28
2023-01-17T08:10:23.336Z,7.35
2023-01-17T08:13:25.402Z,7.98
2023-01-17T08:16:28.847Z,6.61
2023-01-17T08:19:31.223Z,7.18
2023-01-17T08:22:33.323Z,7.34
2023-01-17T08:25:35.860Z,8.31
2023-01-17T08:28:37.775Z,7.75
2023-01-17T08:31:39.926Z,7.13
2023-01-17T08:34:42.039Z,8.26
2023-01-17T08:37:43.992Z,8.09
2023-01-17T08:40:46.150Z,8.47
2023-01-17T08:43:48.921Z,8.99
2023-01-17T08:46:50.799Z,8.89
2023-01-17T08:49:52.806Z,8.40
2023-01-17T08:53:00.852Z,8.70
2023-01-17T08:56:04.082Z,8.98
2023-01-17T08:59:06.338Z,8.16
2023-01-17T09:02:14.919Z,7.36
2023-01-17T09:05:17.450Z,7.69
2023-01-17T09:08:19.630Z,7.18
2023-01-17T09:11:21.662Z,6.45
2023-01-17T09:14:24.272Z,7.38
2023-01-17T09:17:26.275Z,7.53
2023-01-17T09:20:30.212Z,8.15
2023-01-17T09:23:32.176Z,6.92
2023-01-17T09:26:34.085Z,7.62
2023-01-17T09:29:36.207Z,8.07
2023-01-17T09:32:38.211Z,7.84
2023-01-17T09:35:40.189Z,8.03
2023-01-17T09:38:42.546Z,8.86
2023-01-17T09:41:47.322Z,9.44
2023-01-17T09:44:52.697Z,9.23
2023-01-17T09:47:54.639Z,9.48
2023-01-17T09:50:58.360Z,9.00
2023-01-17T09:54:02.437Z,8.96
2023-01-17T09:57:13.949Z,9.04
2023-01-17T10:00:31.361Z,9.33
2023-01-17T10:03:46.123Z,9.25
2023-01-17T10:07:06.910Z,9.78
2023-01-17T10:10:08.872Z,9.69
2023-01-17T10:13:33.831Z,9.16
2023-01-17T10:16:44.856Z,8.97
2023-01-17T10:19:53.639Z,8.95
2023-01-17T10:23:14.107Z,8.83
2023-01-17T10:26:22.100Z,9.44
2023-01-17T10:29:24.214Z,8.85
2023-01-17T10:32:26.634Z,8.59
2023-01-17T10:35:34.662Z,8.93
2023-01-17T10:38:37.355Z,9.19
2023-01-17T10:41:45.973Z,9.88
2023-01-17T10:44:53.074Z,10.18
2023-01-17T10:48:16.296Z,10.57
2023-01-17T10:51:22.004Z,11.48
2023-01-17T10:54:42.510Z,13.17
2023-01-17T10:57:45.567Z,13.16
2023-01-17T11:01:11.010Z,13.23
2023-01-17T11:04:21.281Z,13.31
2023-01-17T11:07:27.851Z,13.00
2023-01-17T11:10:38.049Z,12.85
2023-01-17T11:13:40.032Z,13.26
2023-01-17T11:16:42.413Z,13.35
2023-01-17T11:19:47.683Z,13.31
2023-01-17T11:23:08.429Z,13.38
2023-01-17T11:26:21.545Z,13.99
2023-01-17T11:29:26.882Z,14.73
2023-01-17T11:32:31.271Z,14.81
2023-01-17T11:35:36.948Z,15.16
2023-01-17T11:38:38.921Z,16.33
2023-01-17T11:41:43.131Z,14.28
2023-01-17T11:44:45.030Z,15.81
2023-01-17T11:47:46.954Z,15.30
2023-01-17T11:50:58.408Z,16.43
2023-01-17T11:54:17.217Z,14.73
2023-01-17T11:57:32.939Z,16.04
2023-01-17T12:00:37.942Z,16.69
2023-01-17T12:03:46.334Z,18.05
2023-01-17T12:06:57.989Z,16.03
2023-01-17T12:10:00.353Z,16.41
2023-01-17T12:13:27.257Z,18.08
2023-01-17T12:16:38.207Z,18.05
2023-01-17T12:19:41.497Z,19.13
2023-01-17T12:22:52.812Z,18.08
2023-01-17T12:26:13.101Z,18.43
2023-01-17T12:29:15.000Z,17.43
2023-01-17T12:32:29.982Z,15.69
2023-01-17T12:35:39.995Z,14.14
2023-01-17T12:38:42.066Z,14.52
2023-01-17T12:41:43.971Z,14.99
2023-01-17T12:45:06.145Z,14.20
2023-01-17T12:48:26.200Z,14.03
2023-01-17T12:51:29.587Z,13.88
2023-01-17T12:54:34.100Z,13.26
2023-01-17T12:57:41.729Z,14.36
2023-01-17T13:00:44.263Z,13.82
2023-01-17T13:03:52.412Z,12.41
2023-01-17T13:07:00.545Z,11.36
2023-01-17T13:10:05.183Z,11.05
2023-01-17T13:13:20.410Z,11.47
2023-01-17T13:16:30.520Z,11.12
2023-01-17T13:19:51.669Z,11.43
2023-01-17T13:22:53.761Z,11.16
2023-01-17T13:25:57.599Z,11.99
2023-01-17T13:29:20.115Z,11.85
2023-01-17T13:32:43.390Z,11.71
2023-01-17T13:35:52.246Z,11.76
2023-01-17T13:39:14.459Z,11.14
2023-01-17T13:42:22.840Z,11.32
2023-01-17T13:45:26.719Z,11.59
2023-01-17T13:48:30.774Z,11.47
2023-01-17T13:51:52.629Z,11.19
2023-01-17T13:54:54.746Z,10.92
2023-01-17T13:57:56.765Z,11.41
2023-01-17T14:00:58.805Z,10.88
2023-01-17T14:04:05.056Z,11.21
2023-01-17T14:07:13.601Z,11.34
2023-01-17T14:10:21.508Z,10.61
2023-01-17T14:13:38.951Z,11.00
2023-01-17T14:16:40.860Z,11.32
2023-01-17T14:19:47.230Z,11.09
2023-01-17T14:22:51.609Z,10.99
2023-01-17T14:25:53.590Z,10.98
2023-01-17T14:28:56.009Z,10.91
2023-01-17T14:32:02.146Z,11.21
2023-01-17T14:35:04.777Z,10.68
2023-01-17T14:38:26.215Z,10.83
2023-01-17T14:41:31.450Z,10.34
2023-01-17T14:44:34.171Z,10.19
2023-01-17T14:47:37.327Z,9.08
2023-01-17T14:50:40.179Z,10.26
2023-01-17T14:53:45.211Z,10.58
2023-01-17T14:56:48.206Z,10.18
2023-01-17T14:59:50.254Z,10.76
2023-01-17T15:02:52.731Z,9.74
2023-01-17T15:05:55.958Z,10.58
2023-01-17T15:09:01.192Z,9.55
2023-01-17T15:12:03.283Z,10.58
2023-01-17T15:15:05.594Z,9.54
2023-01-17T15:18:13.689Z,10.57
2023-01-17T15:21:16.267Z,10.75
2023-01-17T15:24:19.916Z,10.54
2023-01-17T15:27:21.820Z,10.31
2023-01-17T15:30:25.307Z,10.61
2023-01-17T15:33:27.507Z,10.78
2023-01-17T15:36:32.552Z,9.65
2023-01-17T15:39:35.293Z,10.45
2023-01-17T15:42:37.257Z,10.43
2023-01-17T15:45:39.204Z,10.39
2023-01-17T15:48:42.262Z,9.97
2023-01-17T15:51:47.170Z,10.54
2023-01-17T15:54:51.839Z,10.76
2023-01-17T15:57:53.838Z,10.11
2023-01-17T16:00:55.980Z,10.26
2023-01-17T16:03:58.770Z,10.18
2023-01-17T16:07:30.532Z,10.26
2023-01-17T16:10:33.488Z,9.47
2023-01-17T16:13:37.836Z,9.60
2023-01-17T16:16:40.140Z,9.91
2023-01-17T16:19:42.162Z,10.02
2023-01-17T16:22:44.515Z,10.20
2023-01-17T16:25:47.591Z,10.33
2023-01-17T16:28:50.016Z,10.20
2023-01-17T16:31:51.990Z,10.17
2023-01-17T16:34:53.967Z,9.78
2023-01-17T16:38:02.901Z,8.73
2023-01-17T16:41:04.822Z,9.98
2023-01-17T16:44:06.697Z,9.43
2023-01-17T16:47:08.606Z,10.01
2023-01-17T16:50:11.331Z,9.11
2023-01-17T16:53:13.643Z,9.10
2023-01-17T16:56:16.985Z,9.33
2023-01-17T16:59:19.029Z,8.83
2023-01-17T17:02:21.002Z,8.99
2023-01-17T17:05:23.039Z,8.57
2023-01-17T17:08:24.947Z,8.61
2023-01-17T17:11:26.830Z,8.22
2023-01-17T17:14:29.492Z,8.98
2023-01-17T17:17:34.479Z,8.75
2023-01-17T17:20:36.499Z,7.83
2023-01-17T17:23:38.458Z,8.17
2023-01-17T17:26:41.021Z,7.90
2023-01-17T17:29:42.918Z,8.07
2023-01-17T17:32:45.328Z,7.87
2023-01-17T17:35:47.369Z,8.44
2023-01-17T17:38:53.122Z,7.66
2023-01-17T17:41:55.120Z,7.50
2023-01-17T17:44:57.475Z,7.64
2023-01-17T17:47:59.463Z,7.11
2023-01-17T17:51:01.834Z,7.83
2023-01-17T17:54:07.794Z,8.09
2023-01-17T17:57:09.782Z,8.50
2023-01-17T18:00:11.920Z,8.07
2023-01-17T18:03:14.051Z,7.78
2023-01-17T18:06:17.550Z,7.98
2023-01-17T18:09:19.586Z,7.78
2023-01-17T18:12:21.637Z,7.53
2023-01-17T18:15:24.247Z,6.94
2023-01-17T18:18:28.255Z,7.25
2023-01-17T18:21:34.328Z,7.33
2023-01-17T18:24:36.730Z,6.72
2023-01-17T18:27:42.676Z,7.52
2023-01-17T18:30:44.696Z,7.57
2023-01-17T18:33:46.588Z,7.02
2023-01-17T18:36:48.517Z,7.12
2023-01-17T18:39:50.508Z,7.18
2023-01-17T18:42:52.797Z,6.56
2023-01-17T18:45:55.274Z,6.82
2023-01-17T18:48:57.747Z,6.87
2023-01-17T18:52:00.203Z,6.40
2023-01-17T18:55:02.281Z,6.60
2023-01-17T18:58:04.261Z,6.07
2023-01-17T19:01:16.837Z,5.97
2023-01-17T19:04:19.320Z,6.86
2023-01-17T19:07:21.717Z,5.65
2023-01-17T19:10:23.684Z,6.34
2023-01-17T19:13:25.583Z,6.75
2023-01-17T19:16:28.552Z,6.05
2023-01-17T19:19:30.594Z,6.22
2023-01-17T19:22:32.540Z,6.20
2023-01-17T19:25:34.968Z,6.39
2023-01-17T19:28:37.484Z,5.57
2023-01-17T19:31:42.610Z,6.33
2023-01-17T19:34:45.145Z,5.60
2023-01-17T19:37:47.773Z,6.06
2023-01-17T19:40:49.617Z,6.23
2023-01-17T19:43:55.572Z,6.09
2023-01-17T19:46:57.875Z,5.98
2023-01-17T19:49:59.812Z,6.45
2023-01-17T19:53:01.816Z,6.39
2023-01-17T19:56:07.673Z,6.21
2023-01-17T19:59:09.845Z,6.33
2023-01-17T20:02:12.055Z,5.71
2023-01-17T20:05:14.407Z,5.61
2023-01-17T20:08:16.317Z,5.70
2023-01-17T20:11:22.271Z,5.66
2023-01-17T20:14:24.543Z,5.57
2023-01-17T20:17:26.350Z,6.07
2023-01-17T20:20:32.529Z,5.54
2023-01-17T20:23:38.811Z,5.68
2023-01-17T20:26:40.997Z,5.41
2023-01-17T20:29:43.997Z,5.53
2023-01-17T20:32:46.586Z,5.54
2023-01-17T20:35:51.615Z,5.97
2023-01-17T20:39:02.374Z,5.74
2023-01-17T20:42:04.372Z,5.19
2023-01-17T20:45:07.582Z,5.68
2023-01-17T20:48:09.760Z,5.21
2023-01-17T20:51:11.846Z,5.33
2023-01-17T20:54:14.699Z,5.40
2023-01-17T20:57:16.610Z,4.95
2023-01-17T21:00:18.815Z,4.61
2023-01-17T21:03:20.659Z,4.44
2023-01-17T21:06:22.882Z,4.76
2023-01-17T21:09:25.015Z,5.91
2023-01-17T21:12:26.849Z,5.16
2023-01-17T21:15:28.810Z,5.06
2023-01-17T21:18:33.278Z,4.51
2023-01-17T21:21:35.146Z,4.48
2023-01-17T21:24:37.102Z,4.23
2023-01-17T21:27:38.952Z,5.53
2023-01-17T21:30:40.905Z,5.56
2023-01-17T21:33:42.864Z,5.22
2023-01-17T21:36:44.809Z,5.47
2023-01-17T21:39:51.437Z,4.29
2023-01-17T21:42:53.323Z,3.79
2023-01-17T21:45:55.503Z,5.03
2023-01-17T21:48:57.947Z,5.70
2023-01-17T21:51:59.875Z,5.94
2023-01-17T21:55:20.211Z,4.52
2023-01-17T21:58:40.561Z,4.31
2023-01-17T22:01:42.789Z,4.45
2023-01-17T22:04:44.829Z,4.93
2023-01-17T22:08:05.344Z,4.96
2023-01-17T22:11:14.480Z,4.79
2023-01-17T22:14:16.379Z,3.68
2023-01-17T22:17:18.285Z,4.23
2023-01-17T22:20:21.406Z,4.33
2023-01-17T22:23:23.596Z,5.32
2023-01-17T22:26:26.534Z,4.06
2023-01-17T22:29:28.475Z,4.36
2023-01-17T22:32:30.273Z,3.69
2023-01-17T22:35:32.799Z,5.02
2023-01-17T22:38:34.662Z,4.59
2023-01-17T22:41:37.450Z,4.94
2023-01-17T22:44:39.388Z,4.44
2023-01-17T22:47:41.341Z,5.11
2023-01-17T22:50:43.179Z,4.60
2023-01-17T22:53:49.017Z,4.59
2023-01-17T22:56:50.891Z,4.01
2023-01-17T22:59:52.758Z,4.44
2023-01-17T23:02:54.951Z,4.21
2023-01-17T23:05:57.500Z,5.16
2023-01-17T23:09:00.701Z,5.71
2023-01-17T23:12:02.596Z,4.96
2023-01-17T23:15:23.551Z,4.92
2023-01-17T23:18:43.901Z,5.40
2023-01-17T23:22:04.498Z,4.97
2023-01-17T23:25:07.798Z,5.23
2023-01-17T23:28:14.527Z,5.67
2023-01-17T23:31:16.534Z,4.96
2023-01-17T23:34:18.618Z,5.84
2023-01-17T23:37:20.814Z,5.57
2023-01-17T23:40:22.677Z,5.50
2023-01-17T23:43:24.571Z,6.57
2023-01-17T23:46:26.951Z,5.88
2023-01-17T23:49:31.366Z,5.89
2023-01-17T23:52:33.227Z,7.27
2023-01-17T23:55:36.053Z,6.10
2023-01-17T23:58:38.176Z,5.63
